createdAt,value
2023-12-22T00:00:58.143Z,5.40
2023-12-22T00:03:26.277Z,5.30
2023-12-22T00:05:54.637Z,5.30
2023-12-22T00:08:23.022Z,5.40
2023-12-22T00:10:52.537Z,5.30
2023-12-22T00:13:20.726Z,5.30
2023-12-22T00:15:48.829Z,5.30
2023-12-22T00:18:17.026Z,5.30
2023-12-22T00:20:45.214Z,5.30
2023-12-22T00:23:13.332Z,5.30
2023-12-22T00:25:41.467Z,5.30
2023-12-22T00:28:10.922Z,5.30
2023-12-22T00:30:39.008Z,5.20
2023-12-22T00:33:07.244Z,5.20
2023-12-22T00:35:36.967Z,5.20
2023-12-22T00:38:04.520Z,5.30
2023-12-22T00:40:32.687Z,5.20
2023-12-22T00:43:00.818Z,5.20
2023-12-22T00:45:30.225Z,5.20
2023-12-22T00:47:58.338Z,5.20
2023-12-22T00:50:26.453Z,5.20
2023-12-22T00:52:54.656Z,5.30
2023-12-22T00:55:22.816Z,5.30
2023-12-22T00:57:51.121Z,5.40
2023-12-22T01:00:19.990Z,5.30
2023-12-22T01:02:49.483Z,5.30
2023-12-22T01:05:17.917Z,5.30
2023-12-22T01:07:46.258Z,5.30
2023-12-22T01:10:14.504Z,5.40
2023-12-22T01:12:42.639Z,5.30
2023-12-22T01:15:10.918Z,5.40
2023-12-22T01:17:39.131Z,5.30
2023-12-22T01:20:09.270Z,5.40
2023-12-22T01:22:39.689Z,5.30
2023-12-22T01:25:08.270Z,5.30
2023-12-22T01:27:36.323Z,5.40
2023-12-22T01:30:04.826Z,5.30
2023-12-22T01:32:35.958Z,5.30
2023-12-22T01:35:10.403Z,5.30
2023-12-22T01:37:40.019Z,5.30
2023-12-22T01:40:09.686Z,5.20
2023-12-22T01:42:37.769Z,5.20
2023-12-22T01:45:07.278Z,5.20
2023-12-22T01:47:35.475Z,5.20
2023-12-22T01:52:32.145Z,5.10
2023-12-22T01:55:01.708Z,5.10
2023-12-22T01:57:29.813Z,5.10
2023-12-22T01:59:57.900Z,5.00
2023-12-22T02:02:25.983Z,5.00
2023-12-22T02:04:54.099Z,4.90
2023-12-22T02:07:22.235Z,4.90
2023-12-22T02:09:50.329Z,4.80
2023-12-22T02:12:19.786Z,4.80
2023-12-22T02:14:47.840Z,4.80
2023-12-22T02:17:23.245Z,4.80
2023-12-22T02:19:51.470Z,4.80
2023-12-22T02:22:19.610Z,4.70
2023-12-22T02:24:49.128Z,4.70
2023-12-22T02:27:34.577Z,4.70
2023-12-22T02:30:05.371Z,4.70
2023-12-22T02:32:35.110Z,4.70
2023-12-22T02:35:04.930Z,4.60
2023-12-22T02:37:33.088Z,4.60
2023-12-22T02:40:02.573Z,4.60
2023-12-22T02:42:31.785Z,4.60
2023-12-22T02:45:00.291Z,4.60
2023-12-22T02:47:29.886Z,4.60
2023-12-22T02:49:58.125Z,4.60
2023-12-22T02:52:26.379Z,4.60
2023-12-22T02:54:54.511Z,4.60
2023-12-22T02:57:24.047Z,4.50
2023-12-22T02:59:52.139Z,4.40
2023-12-22T03:02:20.246Z,4.30
2023-12-22T03:04:48.485Z,4.30
2023-12-22T03:07:16.736Z,4.20
2023-12-22T03:09:44.924Z,4.20
2023-12-22T03:12:13.032Z,4.10
2023-12-22T03:14:42.456Z,4.10
2023-12-22T03:17:12.158Z,4.00
2023-12-22T03:19:41.203Z,4.00
2023-12-22T03:22:09.639Z,3.90
2023-12-22T03:24:38.365Z,3.90
2023-12-22T03:27:06.651Z,3.90
2023-12-22T03:29:34.729Z,4.00
2023-12-22T03:32:04.327Z,3.80
2023-12-22T03:34:32.458Z,3.80
2023-12-22T03:37:00.574Z,3.80
2023-12-22T03:39:28.700Z,3.80
2023-12-22T03:41:56.791Z,3.70
2023-12-22T03:44:26.758Z,3.60
2023-12-22T03:46:55.098Z,3.60
2023-12-22T03:49:24.655Z,3.60
2023-12-22T03:51:52.766Z,3.60
2023-12-22T03:54:20.860Z,3.70
2023-12-22T03:56:49.025Z,3.70
2023-12-22T03:59:19.827Z,3.70
2023-12-22T04:01:53.293Z,3.60
2023-12-22T04:04:23.466Z,3.60
2023-12-22T04:06:53.195Z,3.60
2023-12-22T04:09:21.347Z,3.60
2023-12-22T04:11:49.452Z,3.60
2023-12-22T04:14:19.384Z,3.70
2023-12-22T04:16:48.316Z,3.70
2023-12-22T04:19:16.788Z,3.70
2023-12-22T04:21:45.002Z,3.70
2023-12-22T04:24:14.453Z,3.60
2023-12-22T04:26:42.557Z,3.60
2023-12-22T04:29:10.627Z,3.70
2023-12-22T04:31:38.742Z,3.70
2023-12-22T04:34:06.828Z,3.70
2023-12-22T04:36:34.932Z,3.70
2023-12-22T04:39:03.140Z,3.70
2023-12-22T04:41:32.607Z,3.70
2023-12-22T04:44:04.166Z,3.70
2023-12-22T04:46:32.362Z,3.70
2023-12-22T04:49:00.588Z,3.70
2023-12-22T04:51:28.769Z,3.70
2023-12-22T04:53:56.855Z,3.70
2023-12-22T04:56:24.960Z,3.70
2023-12-22T04:58:54.476Z,3.70
2023-12-22T05:01:22.598Z,3.70
2023-12-22T05:03:50.730Z,3.70
2023-12-22T05:06:18.958Z,3.80
2023-12-22T05:08:47.686Z,3.70
2023-12-22T05:11:15.769Z,3.70
2023-12-22T05:13:45.906Z,3.70
2023-12-22T05:16:15.466Z,3.50
2023-12-22T05:18:43.698Z,3.30
2023-12-22T05:21:14.512Z,3.30
2023-12-22T05:23:42.902Z,3.30
2023-12-22T05:26:10.992Z,3.30
2023-12-22T05:28:39.207Z,3.30
2023-12-22T05:31:07.298Z,3.40
2023-12-22T05:33:36.770Z,3.40
2023-12-22T05:36:05.364Z,3.40
2023-12-22T05:38:33.582Z,3.40
2023-12-22T05:41:01.884Z,3.40
2023-12-22T05:43:30.061Z,3.40
2023-12-22T05:45:58.186Z,3.40
2023-12-22T05:48:26.349Z,3.40
2023-12-22T05:50:55.829Z,3.40
2023-12-22T05:53:23.926Z,3.50
2023-12-22T05:55:52.130Z,3.50
2023-12-22T05:58:20.276Z,3.50
2023-12-22T06:00:48.451Z,3.40
2023-12-22T06:03:16.545Z,3.40
2023-12-22T06:05:44.868Z,3.40
2023-12-22T06:08:14.405Z,3.30
2023-12-22T06:10:42.528Z,3.30
2023-12-22T06:13:10.607Z,3.30
2023-12-22T06:15:38.715Z,3.30
2023-12-22T06:18:07.228Z,3.30
2023-12-22T06:20:35.687Z,3.30
2023-12-22T06:23:05.662Z,3.20
2023-12-22T06:25:35.189Z,3.10
2023-12-22T06:28:03.302Z,3.20
2023-12-22T06:30:31.517Z,3.10
2023-12-22T06:32:59.677Z,3.20
2023-12-22T06:35:27.817Z,3.10
2023-12-22T06:37:56.842Z,3.20
2023-12-22T06:40:24.988Z,3.20
2023-12-22T06:42:54.459Z,3.20
2023-12-22T06:45:22.532Z,3.20
2023-12-22T06:47:50.902Z,3.20
2023-12-22T06:50:19.576Z,3.20
2023-12-22T06:52:47.838Z,3.10
2023-12-22T06:55:16.253Z,3.10
2023-12-22T06:57:44.999Z,3.00
2023-12-22T07:00:16.410Z,2.90
2023-12-22T07:02:44.645Z,2.90
2023-12-22T07:05:36.674Z,2.80
2023-12-22T07:08:07.298Z,2.70
2023-12-22T07:10:35.555Z,2.70
2023-12-22T07:13:03.673Z,2.60
2023-12-22T07:15:33.121Z,2.60
2023-12-22T07:18:01.594Z,2.60
2023-12-22T07:20:29.786Z,2.70
2023-12-22T07:22:58.178Z,2.80
2023-12-22T07:25:26.554Z,2.80
2023-12-22T07:27:54.902Z,2.90
2023-12-22T07:30:23.335Z,2.90
2023-12-22T07:32:54.198Z,3.00
2023-12-22T07:35:22.469Z,3.00
2023-12-22T07:37:50.871Z,3.10
2023-12-22T07:40:19.180Z,3.10
2023-12-22T07:42:47.283Z,3.20
2023-12-22T07:45:15.550Z,3.20
2023-12-22T07:47:43.849Z,3.20
2023-12-22T07:50:13.435Z,3.20
2023-12-22T07:52:42.441Z,3.30
2023-12-22T07:55:11.932Z,3.30
2023-12-22T07:57:40.204Z,3.30
2023-12-22T08:00:10.385Z,3.30
2023-12-22T08:02:41.479Z,3.40
2023-12-22T08:05:09.839Z,3.40
2023-12-22T08:07:39.405Z,3.40
2023-12-22T08:10:08.189Z,3.40
2023-12-22T08:12:36.809Z,3.50
2023-12-22T08:15:05.267Z,3.50
2023-12-22T08:17:33.745Z,3.50
2023-12-22T08:20:06.487Z,3.60
2023-12-22T08:22:45.564Z,3.60
2023-12-22T08:25:14.922Z,3.60
2023-12-22T08:27:43.337Z,3.60
2023-12-22T08:30:12.416Z,3.60
2023-12-22T08:32:40.635Z,3.60
2023-12-22T08:35:09.692Z,3.70
2023-12-22T08:37:38.600Z,3.80
2023-12-22T08:40:09.823Z,4.00
2023-12-22T08:42:38.025Z,4.00
2023-12-22T08:45:07.112Z,4.00
2023-12-22T08:47:35.286Z,4.00
2023-12-22T08:50:05.506Z,4.10
2023-12-22T08:52:34.858Z,4.20
2023-12-22T08:55:03.416Z,4.30
2023-12-22T08:57:32.935Z,4.30
2023-12-22T09:00:01.013Z,4.20
2023-12-22T09:02:29.162Z,4.10
2023-12-22T09:04:57.333Z,4.10
2023-12-22T09:07:25.925Z,4.20
2023-12-22T09:09:54.122Z,4.20
2023-12-22T09:12:22.252Z,4.20
2023-12-22T09:14:52.019Z,4.30
2023-12-22T09:17:20.629Z,4.40
2023-12-22T09:19:48.726Z,4.30
2023-12-22T09:22:16.859Z,4.50
2023-12-22T09:24:44.924Z,4.50
2023-12-22T09:27:13.030Z,4.50
2023-12-22T09:29:41.115Z,4.50
2023-12-22T09:32:10.704Z,4.50
2023-12-22T09:34:40.274Z,4.60
2023-12-22T09:37:08.440Z,4.60
2023-12-22T09:39:36.536Z,4.60
2023-12-22T09:42:04.876Z,4.60
2023-12-22T09:44:34.910Z,4.70
2023-12-22T09:47:04.333Z,4.70
2023-12-22T09:49:34.113Z,4.80
2023-12-22T09:52:04.272Z,4.70
2023-12-22T09:54:32.967Z,4.60
2023-12-22T09:57:11.021Z,4.70
2023-12-22T09:59:47.221Z,4.70
2023-12-22T10:02:15.345Z,4.90
2023-12-22T10:04:44.831Z,5.00
2023-12-22T10:07:15.178Z,4.90
2023-12-22T10:09:43.502Z,5.00
2023-12-22T10:12:12.286Z,5.10
2023-12-22T10:14:41.080Z,5.10
2023-12-22T10:17:09.504Z,5.20
2023-12-22T10:19:37.724Z,5.20
2023-12-22T10:22:07.231Z,5.20
2023-12-22T10:24:43.459Z,5.10
2023-12-22T10:27:12.025Z,5.20
2023-12-22T10:29:41.055Z,5.20
2023-12-22T10:32:10.099Z,5.20
2023-12-22T10:34:38.375Z,5.20
2023-12-22T10:37:07.881Z,5.10
2023-12-22T10:39:35.955Z,5.10
2023-12-22T10:42:04.262Z,5.10
2023-12-22T10:44:32.331Z,5.10
2023-12-22T10:47:00.626Z,5.00
2023-12-22T10:49:28.798Z,5.00
2023-12-22T10:51:57.595Z,5.00
2023-12-22T10:54:28.502Z,5.00
2023-12-22T10:56:59.941Z,5.00
2023-12-22T10:59:32.026Z,5.00
2023-12-22T11:02:00.576Z,4.90
2023-12-22T11:04:33.089Z,4.90
2023-12-22T11:07:01.365Z,4.90
2023-12-22T11:09:31.840Z,4.90
2023-12-22T11:11:59.922Z,5.00
2023-12-22T11:14:28.278Z,5.00
2023-12-22T11:16:56.387Z,5.10
2023-12-22T11:19:24.595Z,4.90
2023-12-22T11:21:52.985Z,4.90
2023-12-22T11:24:21.084Z,5.00
2023-12-22T11:26:50.533Z,5.00
2023-12-22T11:29:19.945Z,5.10
2023-12-22T11:31:48.122Z,5.10
2023-12-22T11:34:19.624Z,5.10
2023-12-22T11:36:48.129Z,5.10
2023-12-22T11:39:16.410Z,5.10
2023-12-22T11:41:44.533Z,5.10
2023-12-22T11:44:14.093Z,5.20
2023-12-22T11:46:42.271Z,5.20
2023-12-22T11:49:12.918Z,5.20
2023-12-22T11:51:42.753Z,5.20
2023-12-22T11:54:43.504Z,5.10
2023-12-22T11:57:32.207Z,5.00
2023-12-22T12:00:04.726Z,5.00
2023-12-22T12:02:41.529Z,5.00
2023-12-22T12:05:10.598Z,4.90
2023-12-22T12:07:42.731Z,4.90
2023-12-22T12:10:10.977Z,4.80
2023-12-22T12:12:39.085Z,4.80
2023-12-22T12:15:19.618Z,4.80
2023-12-22T12:17:47.902Z,4.70
2023-12-22T12:20:16.419Z,4.70
2023-12-22T12:22:45.309Z,4.70
2023-12-22T12:25:21.938Z,4.70
2023-12-22T12:28:03.268Z,4.80
2023-12-22T12:30:33.295Z,4.80
2023-12-22T12:33:04.058Z,4.80
2023-12-22T12:35:32.865Z,4.80
2023-12-22T12:38:01.424Z,4.80
2023-12-22T12:40:30.596Z,4.70
2023-12-22T12:42:58.752Z,4.70
2023-12-22T12:45:27.410Z,4.70
2023-12-22T12:48:01.851Z,4.70
2023-12-22T12:50:32.629Z,4.70
2023-12-22T12:53:01.015Z,4.70
2023-12-22T12:55:29.322Z,4.70
2023-12-22T12:57:58.091Z,4.70
2023-12-22T13:00:29.487Z,4.70
2023-12-22T13:02:59.057Z,4.70
2023-12-22T13:05:27.397Z,4.70
2023-12-22T13:08:04.441Z,4.70
2023-12-22T13:10:33.479Z,4.60
2023-12-22T13:13:01.585Z,4.60
2023-12-22T13:15:29.693Z,4.70
2023-12-22T13:17:59.187Z,4.80
2023-12-22T13:20:27.450Z,4.80
2023-12-22T13:22:55.671Z,4.70
2023-12-22T13:25:25.380Z,4.70
2023-12-22T13:27:54.260Z,4.60
2023-12-22T13:30:34.795Z,4.70
2023-12-22T13:33:04.501Z,4.60
2023-12-22T13:35:32.676Z,4.70
2023-12-22T13:38:00.916Z,4.60
2023-12-22T13:40:29.062Z,4.60
2023-12-22T13:42:58.491Z,4.60
2023-12-22T13:45:26.654Z,4.60
2023-12-22T13:47:55.100Z,4.50
2023-12-22T13:50:24.888Z,4.50
2023-12-22T13:52:53.239Z,4.50
2023-12-22T13:55:24.259Z,4.50
2023-12-22T13:58:00.585Z,4.50
2023-12-22T14:00:30.297Z,4.40
2023-12-22T14:02:58.550Z,4.40
2023-12-22T14:05:32.699Z,4.40
2023-12-22T14:08:03.640Z,4.30
2023-12-22T14:10:32.522Z,4.30
2023-12-22T14:13:00.720Z,4.30
2023-12-22T14:15:37.381Z,4.20
2023-12-22T14:18:10.629Z,4.20
2023-12-22T14:20:40.228Z,4.20
2023-12-22T14:23:11.243Z,4.10
2023-12-22T14:25:40.555Z,4.10
2023-12-22T14:28:08.655Z,4.10
2023-12-22T14:30:36.764Z,4.00
2023-12-22T14:33:05.208Z,4.00
2023-12-22T14:35:33.341Z,4.00
2023-12-22T14:38:02.810Z,4.00
2023-12-22T14:40:31.489Z,3.90
2023-12-22T14:43:00.325Z,4.00
2023-12-22T14:45:28.440Z,3.90
2023-12-22T14:47:56.578Z,4.00
2023-12-22T14:50:24.740Z,3.90
2023-12-22T14:52:53.113Z,3.90
2023-12-22T14:55:22.578Z,3.80
2023-12-22T14:57:51.303Z,3.80
2023-12-22T15:00:21.041Z,3.80
2023-12-22T15:02:49.640Z,3.80
2023-12-22T15:05:18.838Z,3.80
2023-12-22T15:07:47.276Z,3.80
2023-12-22T15:10:15.810Z,3.80
2023-12-22T15:12:45.365Z,3.70
2023-12-22T15:15:13.500Z,3.70
2023-12-22T15:17:41.640Z,3.80
2023-12-22T15:20:12.704Z,3.70
2023-12-22T15:22:41.988Z,3.70
2023-12-22T15:25:10.520Z,3.70
2023-12-22T15:27:40.490Z,3.70
2023-12-22T15:30:11.022Z,3.70
2023-12-22T15:32:39.259Z,3.60
2023-12-22T15:35:09.395Z,3.60
2023-12-22T15:37:37.630Z,3.60
2023-12-22T15:40:06.433Z,3.60
2023-12-22T15:42:34.581Z,3.70
2023-12-22T15:45:02.776Z,3.60
2023-12-22T15:47:32.368Z,3.60
2023-12-22T15:50:00.607Z,3.60
2023-12-22T15:52:30.735Z,3.60
2023-12-22T15:54:58.951Z,3.50
2023-12-22T15:57:27.031Z,3.60
2023-12-22T15:59:55.132Z,3.50
2023-12-22T16:02:23.211Z,3.60
2023-12-22T16:04:53.200Z,3.50
2023-12-22T16:07:21.377Z,3.60
2023-12-22T16:09:49.625Z,3.60
2023-12-22T16:12:17.781Z,3.50
2023-12-22T16:14:45.896Z,3.50
2023-12-22T16:17:14.045Z,3.50
2023-12-22T16:19:42.404Z,3.50
2023-12-22T16:22:11.902Z,3.50
2023-12-22T16:24:40.992Z,3.50
2023-12-22T16:27:09.135Z,3.50
2023-12-22T16:29:41.000Z,3.50
2023-12-22T16:32:11.970Z,3.50
2023-12-22T16:34:44.221Z,3.50
2023-12-22T16:37:14.897Z,3.50
2023-12-22T16:39:50.176Z,3.50
2023-12-22T16:42:19.110Z,3.50
2023-12-22T16:44:47.562Z,3.40
2023-12-22T16:47:15.657Z,3.40
2023-12-22T16:49:44.244Z,3.40
2023-12-22T16:52:13.860Z,3.40
2023-12-22T16:54:41.968Z,3.40
2023-12-22T16:57:10.135Z,3.40
2023-12-22T16:59:38.230Z,3.40
2023-12-22T17:02:20.684Z,3.30
2023-12-22T17:04:54.876Z,3.40
2023-12-22T17:07:24.673Z,3.30
2023-12-22T17:09:52.892Z,3.30
2023-12-22T17:12:20.997Z,3.30
2023-12-22T17:14:49.131Z,3.30
2023-12-22T17:17:17.226Z,3.40
2023-12-22T17:19:45.402Z,3.40
2023-12-22T17:22:13.562Z,3.30
2023-12-22T17:24:44.938Z,3.30
2023-12-22T17:27:13.093Z,3.30
2023-12-22T17:29:41.195Z,3.30
2023-12-22T17:32:11.125Z,3.30
2023-12-22T17:34:39.389Z,3.20
2023-12-22T17:37:07.539Z,3.30
2023-12-22T17:39:35.838Z,3.30
2023-12-22T17:42:05.690Z,3.20
2023-12-22T17:44:33.773Z,3.20
2023-12-22T17:47:04.881Z,3.20
2023-12-22T17:49:33.545Z,3.20
2023-12-22T17:52:01.930Z,3.20
2023-12-22T17:54:30.052Z,3.20
2023-12-22T17:57:01.930Z,3.20
2023-12-22T17:59:31.425Z,3.10
2023-12-22T18:01:59.590Z,3.20
2023-12-22T18:04:27.767Z,3.10
2023-12-22T18:06:57.732Z,3.20
2023-12-22T18:09:27.010Z,3.20
2023-12-22T18:11:55.160Z,3.20
2023-12-22T18:14:23.279Z,3.20
2023-12-22T18:16:52.704Z,3.20
2023-12-22T18:19:20.958Z,3.20
2023-12-22T18:21:49.140Z,3.30
2023-12-22T18:24:18.271Z,3.30
2023-12-22T18:26:46.322Z,3.40
2023-12-22T18:29:14.520Z,3.30
2023-12-22T18:31:42.659Z,3.30
2023-12-22T18:34:12.251Z,3.30
2023-12-22T18:36:40.385Z,3.30
2023-12-22T18:39:08.747Z,3.30
2023-12-22T18:41:36.803Z,3.30
2023-12-22T18:44:05.132Z,3.30
2023-12-22T18:46:33.795Z,3.30
2023-12-22T18:49:02.002Z,3.30
2023-12-22T18:51:31.417Z,3.20
2023-12-22T18:53:59.511Z,3.30
2023-12-22T18:56:27.610Z,3.30
2023-12-22T18:58:57.975Z,3.20
2023-12-22T19:01:35.554Z,3.30
2023-12-22T19:04:12.171Z,3.30
2023-12-22T19:06:41.817Z,3.20
2023-12-22T19:09:10.557Z,3.20
2023-12-22T19:11:38.751Z,3.10
2023-12-22T19:14:06.924Z,3.20
2023-12-22T19:16:35.372Z,3.10
2023-12-22T19:19:03.479Z,3.10
2023-12-22T19:21:31.646Z,3.10
2023-12-22T19:24:01.242Z,3.10
2023-12-22T19:26:29.311Z,3.10
2023-12-22T19:28:57.450Z,3.10
2023-12-22T19:31:29.613Z,3.10
2023-12-22T19:33:57.955Z,3.10
2023-12-22T19:36:26.090Z,3.10
2023-12-22T19:38:54.504Z,3.00
2023-12-22T19:41:24.999Z,3.10
2023-12-22T19:43:53.223Z,3.00
2023-12-22T19:46:22.131Z,3.00
2023-12-22T19:48:50.446Z,3.00
2023-12-22T19:51:18.536Z,3.00
2023-12-22T19:53:47.402Z,2.90
2023-12-22T19:56:15.523Z,2.90
2023-12-22T19:58:45.007Z,2.90
2023-12-22T20:01:13.176Z,3.00
2023-12-22T20:03:41.318Z,3.00
2023-12-22T20:06:10.249Z,3.00
2023-12-22T20:08:38.509Z,3.00
2023-12-22T20:11:06.622Z,3.10
2023-12-22T20:13:34.841Z,3.00
2023-12-22T20:16:07.677Z,3.10
2023-12-22T20:18:35.961Z,3.10
2023-12-22T20:21:05.971Z,3.00
2023-12-22T20:23:34.128Z,3.00
2023-12-22T20:26:02.325Z,3.00
2023-12-22T20:28:30.480Z,3.00
2023-12-22T20:30:59.069Z,3.00
2023-12-22T20:33:28.509Z,3.00
2023-12-22T20:35:56.605Z,3.00
2023-12-22T20:38:24.706Z,3.00
2023-12-22T20:40:52.823Z,3.10
2023-12-22T20:43:20.883Z,3.00
2023-12-22T20:45:50.194Z,3.10
2023-12-22T20:48:18.625Z,3.00
2023-12-22T20:50:48.103Z,3.10
2023-12-22T20:53:17.082Z,3.00
2023-12-22T20:55:46.120Z,3.00
2023-12-22T20:58:14.285Z,3.00
2023-12-22T21:00:42.594Z,3.00
2023-12-22T21:03:10.789Z,3.00
2023-12-22T21:05:38.870Z,3.00
2023-12-22T21:08:09.199Z,2.90
2023-12-22T21:10:37.903Z,2.90
2023-12-22T21:13:06.630Z,2.80
2023-12-22T21:15:35.096Z,2.80
2023-12-22T21:18:03.263Z,2.70
2023-12-22T21:20:31.428Z,2.70
2023-12-22T21:22:59.541Z,2.60
2023-12-22T21:25:28.955Z,2.60
2023-12-22T21:27:57.024Z,2.60
2023-12-22T21:30:25.474Z,2.60
2023-12-22T21:32:53.645Z,2.50
2023-12-22T21:35:21.917Z,2.50
2023-12-22T21:37:50.884Z,2.50
2023-12-22T21:40:19.117Z,2.40
2023-12-22T21:42:49.467Z,2.40
2023-12-22T21:45:18.478Z,2.40
2023-12-22T21:47:47.624Z,2.30
2023-12-22T21:50:15.830Z,2.30
2023-12-22T21:52:44.760Z,2.30
2023-12-22T21:55:13.256Z,2.30
2023-12-22T21:57:43.350Z,2.20
2023-12-22T22:00:14.470Z,2.20
2023-12-22T22:02:42.508Z,2.20
2023-12-22T22:05:12.055Z,2.10
2023-12-22T22:07:40.231Z,2.10
2023-12-22T22:10:09.100Z,2.20
2023-12-22T22:12:37.197Z,2.10
2023-12-22T22:15:05.175Z,2.00
2023-12-22T22:17:35.463Z,2.00
2023-12-22T22:20:03.896Z,2.00
2023-12-22T22:22:32.043Z,2.00
2023-12-22T22:25:00.156Z,2.00
2023-12-22T22:27:28.311Z,2.00
2023-12-22T22:29:56.773Z,2.00
2023-12-22T22:32:24.928Z,2.00
2023-12-22T22:34:54.819Z,1.90
2023-12-22T22:37:22.951Z,1.90
2023-12-22T22:39:51.175Z,1.90
2023-12-22T22:42:19.251Z,1.90
2023-12-22T22:44:47.293Z,1.90
2023-12-22T22:47:15.455Z,1.90
2023-12-22T22:49:44.335Z,1.90
2023-12-22T22:52:13.804Z,1.90
2023-12-22T22:54:41.872Z,1.90
2023-12-22T22:57:09.963Z,2.00
2023-12-22T22:59:39.063Z,2.00
2023-12-22T23:02:07.159Z,2.00
2023-12-22T23:04:35.276Z,2.00
2023-12-22T23:07:03.333Z,2.00
2023-12-22T23:09:32.765Z,2.00
2023-12-22T23:12:00.816Z,2.00
2023-12-22T23:14:28.888Z,2.00
2023-12-22T23:16:57.006Z,1.90
2023-12-22T23:19:25.495Z,2.00
2023-12-22T23:21:53.561Z,2.00
2023-12-22T23:24:21.763Z,2.00
2023-12-22T23:26:52.078Z,2.00
2023-12-22T23:29:20.311Z,1.90
2023-12-22T23:31:48.410Z,2.00
2023-12-22T23:34:17.127Z,1.90
2023-12-22T23:36:45.252Z,1.90
2023-12-22T23:39:13.406Z,1.80
2023-12-22T23:41:41.492Z,1.80
2023-12-22T23:44:11.062Z,1.80
2023-12-22T23:46:39.292Z,1.80
2023-12-22T23:49:07.385Z,1.80
2023-12-22T23:51:35.470Z,1.90
2023-12-22T23:54:03.521Z,1.90
2023-12-22T23:56:31.601Z,1.80
2023-12-22T23:58:59.709Z,1.90
